createdAt,value
2023-01-22T00:01:51.322Z,98732.48
2023-01-22T00:04:54.465Z,98733.61
2023-01-22T00:07:57.624Z,98740.26
2023-01-22T00:11:01.204Z,98750.00
2023-01-22T00:14:04.506Z,98754.94
2023-01-22T00:17:07.771Z,98757.04
2023-01-22T00:20:12.552Z,98757.54
2023-01-22T00:23:16.839Z,98766.80
2023-01-22T00:26:21.050Z,98765.71
2023-01-22T00:29:24.660Z,98770.88
2023-01-22T00:32:27.933Z,98768.11
2023-01-22T00:35:31.726Z,98772.42
2023-01-22T00:38:35.319Z,98775.20
2023-01-22T00:41:38.506Z,98782.13
2023-01-22T00:44:41.905Z,98781.30
2023-01-22T00:47:45.310Z,98777.39
2023-01-22T00:50:49.149Z,98777.13
2023-01-22T00:53:52.319Z,98785.73
2023-01-22T00:56:55.504Z,98788.95
2023-01-22T00:59:58.803Z,98786.44
2023-01-22T01:03:20.671Z,98783.89
2023-01-22T01:06:23.869Z,98785.36
2023-01-22T01:09:27.268Z,98790.45
2023-01-22T01:12:30.408Z,98796.15
2023-01-22T01:15:34.872Z,98795.29
2023-01-22T01:18:38.305Z,98800.96
2023-01-22T01:21:41.482Z,98798.95
2023-01-22T01:24:44.687Z,98797.78
2023-01-22T01:27:47.953Z,98793.98
2023-01-22T01:30:51.239Z,98796.33
2023-01-22T01:33:54.544Z,98804.45
2023-01-22T01:36:58.245Z,98806.54
2023-01-22T01:40:01.437Z,98807.84
2023-01-22T01:43:05.654Z,98803.00
2023-01-22T01:46:23.452Z,98798.94
2023-01-22T01:49:38.657Z,98795.72
2023-01-22T01:52:42.370Z,98795.39
2023-01-22T01:55:45.935Z,98794.31
2023-01-22T01:58:53.235Z,98797.69
2023-01-22T02:01:57.218Z,98796.70
2023-01-22T02:05:00.653Z,98798.23
2023-01-22T02:08:04.712Z,98794.82
2023-01-22T02:11:08.714Z,98799.67
2023-01-22T02:14:19.861Z,98804.79
2023-01-22T02:17:23.007Z,98806.00
2023-01-22T02:20:27.048Z,98821.89
2023-01-22T02:23:32.298Z,98826.73
2023-01-22T02:26:36.763Z,98830.08
2023-01-22T02:29:40.100Z,98832.52
2023-01-22T02:32:45.448Z,98831.96
2023-01-22T02:35:49.673Z,98834.05
2023-01-22T02:38:52.997Z,98835.80
2023-01-22T02:41:57.613Z,98838.36
2023-01-22T02:45:00.833Z,98842.73
2023-01-22T02:48:04.176Z,98847.62
2023-01-22T02:51:09.658Z,98853.58
2023-01-22T02:54:13.030Z,98856.54
2023-01-22T02:57:16.622Z,98859.09
2023-01-22T03:00:21.188Z,98860.33
2023-01-22T03:03:24.436Z,98863.27
2023-01-22T03:06:29.666Z,98865.33
2023-01-22T03:09:35.534Z,98860.89
2023-01-22T03:12:57.884Z,98853.48
2023-01-22T03:16:22.384Z,98844.92
2023-01-22T03:19:45.518Z,98839.30
2023-01-22T03:22:53.081Z,98831.20
2023-01-22T03:25:56.957Z,98831.01
2023-01-22T03:29:02.025Z,98833.23
2023-01-22T03:32:06.285Z,98840.58
2023-01-22T03:35:10.874Z,98849.27
2023-01-22T03:38:25.506Z,98854.67
2023-01-22T03:41:29.412Z,98848.83
2023-01-22T03:44:33.007Z,98849.14
2023-01-22T03:47:36.555Z,98849.59
2023-01-22T03:50:48.085Z,98852.14
2023-01-22T03:53:51.820Z,98857.20
2023-01-22T03:56:55.059Z,98855.67
2023-01-22T04:00:07.680Z,98855.06
2023-01-22T04:03:15.735Z,98856.98
2023-01-22T04:06:21.909Z,98855.27
2023-01-22T04:09:25.070Z,98859.95
2023-01-22T04:12:28.239Z,98860.42
2023-01-22T04:15:32.027Z,98864.85
2023-01-22T04:18:38.241Z,98866.19
2023-01-22T04:22:00.124Z,98868.13
2023-01-22T04:25:04.283Z,98870.42
2023-01-22T04:28:08.650Z,98869.45
2023-01-22T04:31:12.272Z,98862.39
2023-01-22T04:34:33.849Z,98863.41
2023-01-22T04:37:47.774Z,98862.23
2023-01-22T04:40:51.115Z,98863.55
2023-01-22T04:43:54.366Z,98859.98
2023-01-22T04:46:59.977Z,98863.44
2023-01-22T04:50:03.471Z,98864.42
2023-01-22T04:53:06.898Z,98864.20
2023-01-22T04:56:10.819Z,98871.20
2023-01-22T04:59:14.802Z,98877.83
2023-01-22T05:02:18.281Z,98884.41
2023-01-22T05:05:21.630Z,98889.27
2023-01-22T05:08:24.878Z,98886.94
2023-01-22T05:11:28.202Z,98880.02
2023-01-22T05:14:36.343Z,98881.04
2023-01-22T05:17:39.618Z,98874.48
2023-01-22T05:20:42.902Z,98875.95
2023-01-22T05:23:47.426Z,98879.96
2023-01-22T05:26:50.729Z,98876.81
2023-01-22T05:30:13.200Z,98872.98
2023-01-22T05:33:40.293Z,98883.02
2023-01-22T05:36:46.101Z,98887.66
2023-01-22T05:39:52.493Z,98886.01
2023-01-22T05:42:55.986Z,98889.33
2023-01-22T05:46:02.737Z,98894.27
2023-01-22T05:49:34.798Z,98893.90
2023-01-22T05:52:38.113Z,98890.59
2023-01-22T05:55:41.351Z,98896.55
2023-01-22T05:58:44.843Z,98895.16
2023-01-22T06:01:48.739Z,98894.45
2023-01-22T06:04:52.171Z,98895.59
2023-01-22T06:07:59.362Z,98900.89
2023-01-22T06:11:04.343Z,98899.16
2023-01-22T06:14:07.536Z,98900.56
2023-01-22T06:17:10.789Z,98902.70
2023-01-22T06:20:30.091Z,98910.05
2023-01-22T06:23:33.836Z,98915.58
2023-01-22T06:26:37.118Z,98922.36
2023-01-22T06:29:41.441Z,98933.04
2023-01-22T06:32:44.701Z,98941.29
2023-01-22T06:35:53.696Z,98944.79
2023-01-22T06:38:57.468Z,98950.91
2023-01-22T06:42:11.483Z,98955.28
2023-01-22T06:45:15.264Z,98960.22
2023-01-22T06:48:21.793Z,98950.45
2023-01-22T06:51:25.836Z,98949.09
2023-01-22T06:54:29.066Z,98955.69
2023-01-22T06:57:32.245Z,98965.05
2023-01-22T07:00:35.469Z,98962.50
2023-01-22T07:03:38.818Z,98964.52
2023-01-22T07:06:42.187Z,98964.84
2023-01-22T07:09:45.335Z,98964.40
2023-01-22T07:12:50.006Z,98960.78
2023-01-22T07:15:53.213Z,98958.97
2023-01-22T07:18:56.402Z,98968.09
2023-01-22T07:21:59.632Z,98972.14
2023-01-22T07:25:03.209Z,98974.77
2023-01-22T07:28:07.489Z,98975.86
2023-01-22T07:31:12.916Z,98974.73
2023-01-22T07:34:16.119Z,98970.90
2023-01-22T07:37:20.349Z,98972.60
2023-01-22T07:40:24.607Z,98971.15
2023-01-22T07:43:28.077Z,98973.13
2023-01-22T07:46:31.327Z,98969.44
2023-01-22T07:49:36.965Z,98982.86
2023-01-22T07:52:40.177Z,98991.88
2023-01-22T07:55:43.375Z,99000.02
2023-01-22T07:58:47.106Z,99006.84
2023-01-22T08:01:50.298Z,99004.55
2023-01-22T08:04:53.527Z,99006.21
2023-01-22T08:07:56.755Z,99000.09
2023-01-22T08:11:00.401Z,99000.98
2023-01-22T08:14:03.738Z,99000.48
2023-01-22T08:17:07.010Z,98994.87
2023-01-22T08:20:11.094Z,98998.00
2023-01-22T08:23:14.417Z,99003.19
2023-01-22T08:26:17.634Z,99005.37
2023-01-22T08:29:20.960Z,99012.03
2023-01-22T08:32:24.404Z,99015.00
2023-01-22T08:35:27.665Z,99015.09
2023-01-22T08:38:30.849Z,99011.44
2023-01-22T08:41:34.038Z,99018.08
2023-01-22T08:44:37.228Z,99021.01
2023-01-22T08:47:40.412Z,99014.33
2023-01-22T08:50:43.638Z,99011.78
2023-01-22T08:53:46.872Z,99014.55
2023-01-22T08:56:50.408Z,99011.51
2023-01-22T09:00:01.018Z,99015.39
2023-01-22T09:03:04.888Z,99021.71
2023-01-22T09:06:08.108Z,99014.80
2023-01-22T09:09:12.799Z,99013.11
2023-01-22T09:12:16.156Z,99016.20
2023-01-22T09:15:19.285Z,99015.23
2023-01-22T09:18:22.531Z,99010.94
2023-01-22T09:21:25.797Z,99003.04
2023-01-22T09:24:28.957Z,99001.66
2023-01-22T09:27:32.250Z,99005.65
2023-01-22T09:30:39.395Z,99007.49
2023-01-22T09:33:42.749Z,99015.07
2023-01-22T09:36:46.015Z,99013.89
2023-01-22T09:39:50.373Z,99011.77
2023-01-22T09:43:06.979Z,99011.83
2023-01-22T09:46:19.879Z,99010.45
2023-01-22T09:49:38.130Z,99007.52
2023-01-22T09:52:41.531Z,99008.06
2023-01-22T09:55:52.391Z,99009.33
2023-01-22T09:58:57.702Z,99004.51
2023-01-22T10:02:14.587Z,99004.70
2023-01-22T10:05:35.733Z,99002.11
2023-01-22T10:08:52.524Z,99005.88
2023-01-22T10:11:57.029Z,99000.78
2023-01-22T10:15:00.584Z,99003.27
2023-01-22T10:18:33.716Z,99002.98
2023-01-22T10:21:47.034Z,99003.94
2023-01-22T10:24:50.536Z,98997.93
2023-01-22T10:28:00.048Z,98993.64
2023-01-22T10:31:04.300Z,98989.00
2023-01-22T10:34:16.766Z,98989.84
2023-01-22T10:37:19.820Z,98986.27
2023-01-22T10:40:34.319Z,98988.45
2023-01-22T10:43:39.284Z,98988.14
2023-01-22T10:46:42.949Z,98986.52
2023-01-22T10:50:01.410Z,98983.77
2023-01-22T10:53:17.798Z,98981.65
2023-01-22T10:56:33.147Z,98990.59
2023-01-22T10:59:37.178Z,98995.52
2023-01-22T11:02:51.224Z,98993.52
2023-01-22T11:06:00.224Z,98991.55
2023-01-22T11:09:16.016Z,98987.61
2023-01-22T11:12:39.421Z,98987.35
2023-01-22T11:15:54.461Z,98981.83
2023-01-22T11:19:06.193Z,98975.75
2023-01-22T11:22:22.267Z,98976.77
2023-01-22T11:25:27.778Z,98973.58
2023-01-22T11:28:41.691Z,98974.91
2023-01-22T11:31:58.584Z,98986.15
2023-01-22T11:35:18.589Z,98994.79
2023-01-22T11:38:30.771Z,98991.70
2023-01-22T11:41:40.770Z,98998.85
2023-01-22T11:45:05.243Z,99000.07
2023-01-22T11:48:25.746Z,99003.58
2023-01-22T11:51:28.851Z,98995.88
2023-01-22T11:54:44.342Z,98999.83
2023-01-22T11:58:11.598Z,98998.92
2023-01-22T12:01:27.817Z,99002.71
2023-01-22T12:04:52.265Z,99002.92
2023-01-22T12:08:01.105Z,99006.98
2023-01-22T12:11:13.730Z,99005.33
2023-01-22T12:15:01.996Z,99007.00
2023-01-22T12:18:08.067Z,99008.08
2023-01-22T12:21:48.606Z,99011.51
2023-01-22T12:25:12.113Z,99016.55
2023-01-22T12:28:32.451Z,99014.05
2023-01-22T12:31:35.655Z,99013.13
2023-01-22T12:35:08.921Z,99017.05
2023-01-22T12:38:27.712Z,99022.48
2023-01-22T12:41:44.411Z,99028.70
2023-01-22T12:45:03.363Z,99033.20
2023-01-22T12:48:12.536Z,99036.72
2023-01-22T12:51:34.620Z,99039.68
2023-01-22T12:54:37.889Z,99042.36
2023-01-22T12:57:42.461Z,99045.90
2023-01-22T13:00:45.693Z,99047.48
2023-01-22T13:04:04.156Z,99047.40
2023-01-22T13:07:22.079Z,99055.14
2023-01-22T13:10:30.937Z,99056.44
2023-01-22T13:13:44.913Z,99060.58
2023-01-22T13:17:06.180Z,99057.13
2023-01-22T13:20:17.779Z,99060.61
2023-01-22T13:23:21.804Z,99061.67
2023-01-22T13:26:28.136Z,99058.76
2023-01-22T13:29:34.254Z,99059.50
2023-01-22T13:32:37.440Z,99068.11
2023-01-22T13:35:45.310Z,99070.10
2023-01-22T13:38:54.179Z,99070.73
2023-01-22T13:42:00.829Z,99069.23
2023-01-22T13:45:04.450Z,99069.59
2023-01-22T13:48:16.556Z,99072.20
2023-01-22T13:51:21.806Z,99073.33
2023-01-22T13:54:42.746Z,99081.14
2023-01-22T13:57:51.625Z,99076.92
2023-01-22T14:00:54.892Z,99080.28
2023-01-22T14:04:24.378Z,99083.95
2023-01-22T14:07:27.508Z,99080.66
2023-01-22T14:10:30.641Z,99087.63
2023-01-22T14:13:40.269Z,99086.17
2023-01-22T14:16:44.366Z,99091.58
2023-01-22T14:19:47.771Z,99092.88
2023-01-22T14:22:51.333Z,99092.66
2023-01-22T14:25:56.046Z,99090.80
2023-01-22T14:28:59.300Z,99091.66
2023-01-22T14:32:02.429Z,99094.34
2023-01-22T14:35:05.759Z,99096.48
2023-01-22T14:38:09.024Z,99103.89
2023-01-22T14:41:12.513Z,99110.31
2023-01-22T14:44:15.901Z,99117.74
2023-01-22T14:47:21.983Z,99121.73
2023-01-22T14:50:25.093Z,99129.45
2023-01-22T14:53:31.276Z,99129.86
2023-01-22T14:56:34.443Z,99129.48
2023-01-22T14:59:38.175Z,99133.15
2023-01-22T15:02:41.785Z,99133.70
2023-01-22T15:05:45.521Z,99132.60
2023-01-22T15:08:48.690Z,99134.00
2023-01-22T15:11:51.782Z,99136.91
2023-01-22T15:14:55.087Z,99146.35
2023-01-22T15:17:58.297Z,99152.98
2023-01-22T15:21:03.722Z,99150.92
2023-01-22T15:24:07.734Z,99153.98
2023-01-22T15:27:11.387Z,99157.02
2023-01-22T15:30:15.241Z,99162.50
2023-01-22T15:33:18.388Z,99166.20
2023-01-22T15:36:22.049Z,99171.34
2023-01-22T15:39:25.355Z,99172.20
2023-01-22T15:42:28.559Z,99176.86
2023-01-22T15:45:31.931Z,99182.58
2023-01-22T15:48:38.126Z,99190.17
2023-01-22T15:51:42.230Z,99192.24
2023-01-22T15:54:46.372Z,99188.84
2023-01-22T15:57:49.654Z,99194.48
2023-01-22T16:00:53.173Z,99194.65
2023-01-22T16:03:56.866Z,99194.89
2023-01-22T16:07:00.027Z,99196.69
2023-01-22T16:10:03.400Z,99199.27
2023-01-22T16:13:06.694Z,99204.77
2023-01-22T16:16:18.502Z,99208.31
2023-01-22T16:19:21.847Z,99211.18
2023-01-22T16:22:25.741Z,99213.68
2023-01-22T16:25:28.951Z,99216.19
2023-01-22T16:28:32.122Z,99222.22
2023-01-22T16:31:36.367Z,99225.70
2023-01-22T16:34:39.600Z,99232.30
2023-01-22T16:37:44.387Z,99235.98
2023-01-22T16:40:47.539Z,99237.10
2023-01-22T16:44:01.904Z,99245.55
2023-01-22T16:47:05.139Z,99248.97
2023-01-22T16:50:10.288Z,99252.73
2023-01-22T16:53:13.474Z,99262.27
2023-01-22T16:56:16.727Z,99265.30
2023-01-22T16:59:20.110Z,99261.48
2023-01-22T17:02:23.596Z,99260.71
2023-01-22T17:05:26.847Z,99265.42
2023-01-22T17:08:30.050Z,99264.32
2023-01-22T17:11:33.211Z,99268.44
2023-01-22T17:14:37.821Z,99279.27
2023-01-22T17:17:40.977Z,99275.98
2023-01-22T17:20:57.444Z,99274.16
2023-01-22T17:24:05.104Z,99271.27
2023-01-22T17:27:08.368Z,99271.19
2023-01-22T17:30:11.976Z,99276.54
2023-01-22T17:33:15.209Z,99278.45
2023-01-22T17:36:19.910Z,99286.70
2023-01-22T17:39:24.346Z,99287.70
2023-01-22T17:42:27.640Z,99295.29
2023-01-22T17:45:30.886Z,99303.42
2023-01-22T17:48:35.741Z,99306.02
2023-01-22T17:51:39.023Z,99308.76
2023-01-22T17:54:43.862Z,99317.74
2023-01-22T17:57:47.060Z,99322.80
2023-01-22T18:00:50.301Z,99325.32
2023-01-22T18:03:56.804Z,99328.67
2023-01-22T18:07:00.112Z,99328.83
2023-01-22T18:10:03.944Z,99331.89
2023-01-22T18:13:07.198Z,99335.57
2023-01-22T18:16:13.885Z,99342.08
2023-01-22T18:19:18.748Z,99341.92
2023-01-22T18:22:22.532Z,99343.08
2023-01-22T18:25:25.741Z,99345.17
2023-01-22T18:28:28.892Z,99350.44
2023-01-22T18:31:32.344Z,99348.10
2023-01-22T18:34:35.655Z,99355.27
2023-01-22T18:37:39.577Z,99358.73
2023-01-22T18:40:42.992Z,99363.14
2023-01-22T18:43:53.521Z,99369.36
2023-01-22T18:46:59.352Z,99368.77
2023-01-22T18:50:02.586Z,99366.48
2023-01-22T18:53:07.163Z,99369.08
2023-01-22T18:56:11.592Z,99372.35
2023-01-22T18:59:14.847Z,99372.11
2023-01-22T19:02:21.940Z,99370.48
2023-01-22T19:05:27.330Z,99372.27
2023-01-22T19:08:30.746Z,99374.13
2023-01-22T19:11:37.846Z,99381.86
2023-01-22T19:14:41.584Z,99384.87
2023-01-22T19:17:45.509Z,99383.70
2023-01-22T19:20:49.065Z,99387.64
2023-01-22T19:23:59.149Z,99391.98
2023-01-22T19:27:05.435Z,99401.27
2023-01-22T19:30:10.380Z,99401.75
2023-01-22T19:33:13.559Z,99404.77
2023-01-22T19:36:19.684Z,99402.84
2023-01-22T19:39:25.515Z,99400.98
2023-01-22T19:42:28.894Z,99405.01
2023-01-22T19:45:35.469Z,99407.23
2023-01-22T19:48:39.945Z,99414.58
2023-01-22T19:51:43.481Z,99416.65
2023-01-22T19:54:49.331Z,99416.46
2023-01-22T19:57:55.532Z,99413.36
2023-01-22T20:00:58.902Z,99410.61
2023-01-22T20:04:03.797Z,99408.28
2023-01-22T20:07:07.403Z,99404.42
2023-01-22T20:10:14.999Z,99408.80
2023-01-22T20:13:18.307Z,99408.36
2023-01-22T20:16:25.236Z,99407.79
2023-01-22T20:19:29.248Z,99412.29
2023-01-22T20:22:32.613Z,99408.11
2023-01-22T20:25:38.632Z,99413.05
2023-01-22T20:28:42.130Z,99413.02
2023-01-22T20:31:45.383Z,99415.92
2023-01-22T20:34:49.365Z,99424.92
2023-01-22T20:37:53.059Z,99436.88
2023-01-22T20:41:05.146Z,99441.67
2023-01-22T20:44:09.200Z,99448.05
2023-01-22T20:47:12.480Z,99448.10
2023-01-22T20:50:15.819Z,99452.83
2023-01-22T20:53:19.935Z,99459.20
2023-01-22T20:56:30.472Z,99460.81
2023-01-22T20:59:34.027Z,99468.20
2023-01-22T21:02:37.709Z,99470.25
2023-01-22T21:05:41.454Z,99471.94
2023-01-22T21:08:49.147Z,99474.18
2023-01-22T21:11:52.271Z,99471.34
2023-01-22T21:14:55.681Z,99478.23
2023-01-22T21:17:59.652Z,99474.12
2023-01-22T21:21:05.242Z,99477.41
2023-01-22T21:24:08.825Z,99478.50
2023-01-22T21:27:12.417Z,99480.13
2023-01-22T21:30:15.827Z,99485.59
2023-01-22T21:33:19.149Z,99491.40
2023-01-22T21:36:26.118Z,99488.44
2023-01-22T21:39:30.198Z,99485.40
2023-01-22T21:42:52.269Z,99486.17
2023-01-22T21:46:14.016Z,99491.35
2023-01-22T21:49:23.479Z,99500.07
2023-01-22T21:52:26.699Z,99501.11
2023-01-22T21:55:30.244Z,99497.27
2023-01-22T21:58:33.628Z,99496.16
2023-01-22T22:01:37.585Z,99498.54
2023-01-22T22:04:40.944Z,99509.06
2023-01-22T22:07:44.230Z,99511.63
2023-01-22T22:10:51.335Z,99510.48
2023-01-22T22:13:54.964Z,99518.86
2023-01-22T22:16:58.237Z,99530.87
2023-01-22T22:20:01.424Z,99546.62
2023-01-22T22:23:04.685Z,99549.93
2023-01-22T22:26:10.232Z,99559.09
2023-01-22T22:29:13.437Z,99557.48
2023-01-22T22:32:16.665Z,99557.63
2023-01-22T22:35:19.993Z,99557.11
2023-01-22T22:38:23.193Z,99563.34
2023-01-22T22:41:29.494Z,99568.10
2023-01-22T22:44:32.764Z,99567.72
2023-01-22T22:47:36.572Z,99567.12
2023-01-22T22:50:42.964Z,99565.92
2023-01-22T22:53:47.722Z,99566.25
2023-01-22T22:56:51.706Z,99562.27
2023-01-22T22:59:54.867Z,99554.31
2023-01-22T23:02:58.072Z,99541.36
2023-01-22T23:06:19.253Z,99545.52
2023-01-22T23:09:23.000Z,99547.05
2023-01-22T23:12:26.184Z,99554.41
2023-01-22T23:15:30.856Z,99560.71
2023-01-22T23:18:35.790Z,99561.45
2023-01-22T23:21:42.165Z,99554.55
2023-01-22T23:24:46.604Z,99561.67
2023-01-22T23:27:49.985Z,99569.70
2023-01-22T23:30:53.262Z,99565.95
2023-01-22T23:33:57.776Z,99570.73
2023-01-22T23:37:00.985Z,99569.77
2023-01-22T23:40:04.776Z,99571.16
2023-01-22T23:43:08.190Z,99577.41
2023-01-22T23:46:14.729Z,99580.63
2023-01-22T23:49:17.953Z,99583.77
2023-01-22T23:52:21.215Z,99582.36
2023-01-22T23:55:24.535Z,99578.82
2023-01-22T23:58:28.478Z,99579.20
